Time;durP1;ratioP1;P1;durP2;ratioP2;P2;SDS_P1;SDS_P2;PMS_P1;PMS_P2;Temp;Humidity;BMP_temperature;BMP_pressure;BME280_temperature;BME280_humidity;BME280_pressure;Samples;Min_cycle;Max_cycle;Signal;HPM_P1;HPM_P2
2023/05/15 04:02:42;;;;;;;14.20;9.20;;;;;;;11.56;100.00;99617.38;6605181;27;20072;-83
2023/05/15 04:05:48;;;;;;;11.02;7.95;;;;;;;11.61;100.00;99603.28;6585564;27;34344;-83
2023/05/15 04:08:51;;;;;;;14.15;8.88;;;;;;;11.64;100.00;99610.94;6568449;27;33683;-83
2023/05/15 04:11:54;;;;;;;15.43;8.88;;;;;;;11.64;100.00;99602.88;6604705;27;34548;-83
2023/05/15 04:15:23;;;;;;;12.93;8.57;;;;;;;11.64;100.00;99602.88;6567771;27;33931;-83
2023/05/15 04:18:26;;;;;;;13.20;9.13;;;;;;;11.70;100.00;99593.97;6585860;27;35386;-83
2023/05/15 04:21:29;;;;;;;12.88;8.50;;;;;;;11.73;100.00;99590.88;6567133;27;34364;-83
2023/05/15 04:24:32;;;;;;;13.02;8.23;;;;;;;11.77;100.00;99587.56;6585007;27;33576;-83
2023/05/15 04:27:36;;;;;;;11.68;8.27;;;;;;;11.78;100.00;99600.00;6584995;27;34236;-83
2023/05/15 04:30:39;;;;;;;15.52;9.57;;;;;;;11.81;100.00;99596.06;6604542;27;34228;-83
2023/05/15 04:33:41;;;;;;;16.60;8.60;;;;;;;11.81;100.00;99598.75;6585066;27;34476;-83
2023/05/15 04:36:44;;;;;;;15.07;9.40;;;;;;;11.80;100.00;99592.53;6586133;27;34006;-83
2023/05/15 04:39:47;;;;;;;13.82;9.00;;;;;;;11.83;100.00;99588.59;6567053;27;34656;-83
2023/05/15 04:42:50;;;;;;;15.63;9.25;;;;;;;11.76;100.00;99587.78;6541613;27;33753;-83
2023/05/15 04:45:52;;;;;;;13.18;9.40;;;;;;;11.80;100.00;99611.41;6586131;27;33890;-83
2023/05/15 04:48:56;;;;;;;14.10;9.45;;;;;;;11.85;100.00;99610.00;6569891;27;33750;-83
2023/05/15 04:51:58;;;;;;;12.68;9.32;;;;;;;11.92;100.00;99606.28;6591897;27;33930;-83
2023/05/15 04:55:02;;;;;;;15.77;9.75;;;;;;;11.96;100.00;99617.47;6570043;27;34516;-82
2023/05/15 04:58:05;;;;;;;15.75;9.55;;;;;;;11.97;100.00;99625.38;6606784;27;33666;-83
2023/05/15 05:01:07;;;;;;;16.87;10.38;;;;;;;12.02;100.00;99622.06;6594901;26;34495;-83
2023/05/15 05:04:10;;;;;;;16.85;10.57;;;;;;;11.98;100.00;99642.37;6606904;27;34052;-83
2023/05/15 05:07:13;;;;;;;15.63;10.05;;;;;;;11.98;100.00;99661.28;6568189;27;33519;-83
2023/05/15 05:10:16;;;;;;;15.00;10.02;;;;;;;12.02;100.00;99657.13;6605730;27;34475;-82
2023/05/15 05:13:19;;;;;;;16.05;10.52;;;;;;;12.05;100.00;99661.28;6605811;27;33934;-82
2023/05/15 05:16:21;;;;;;;16.37;11.10;;;;;;;12.08;100.00;99652.78;6566898;27;33715;-83
2023/05/15 05:19:26;;;;;;;19.48;10.65;;;;;;;12.13;100.00;99659.22;6604924;27;34578;-82
2023/05/15 05:22:29;;;;;;;17.27;11.05;;;;;;;12.16;100.00;99656.09;6605170;27;34940;-83
2023/05/15 05:25:32;;;;;;;17.27;11.27;;;;;;;12.23;100.00;99667.75;6605477;27;34563;-82
2023/05/15 05:28:35;;;;;;;18.17;10.75;;;;;;;12.27;100.00;99681.66;6606113;27;34294;-82
2023/05/15 05:31:38;;;;;;;16.05;9.98;;;;;;;12.40;100.00;99678.12;6585859;27;34084;-83
2023/05/15 05:34:40;;;;;;;18.30;11.52;;;;;;;12.43;100.00;99675.00;6605807;27;34477;-82
2023/05/15 05:37:43;;;;;;;16.48;10.77;;;;;;;12.52;100.00;99667.53;6568405;27;33465;-86
2023/05/15 05:40:46;;;;;;;15.00;10.45;;;;;;;12.49;100.00;99663.41;6586198;27;33601;-86
2023/05/15 05:43:49;;;;;;;15.18;10.10;;;;;;;12.54;100.00;99657.37;6568359;27;34079;-87
2023/05/15 05:46:51;;;;;;;17.48;10.95;;;;;;;12.60;100.00;99651.13;6567907;27;33794;-87
2023/05/15 05:49:54;;;;;;;16.10;11.02;;;;;;;12.64;100.00;99660.50;6605862;27;34197;-83
2023/05/15 05:52:57;;;;;;;16.73;10.85;;;;;;;12.71;100.00;99661.31;6586075;27;34962;-83
2023/05/15 05:56:00;;;;;;;15.00;9.93;;;;;;;12.87;100.00;99671.69;6567894;27;33740;-83
2023/05/15 05:59:05;;;;;;;16.62;10.95;;;;;;;12.95;100.00;99676.03;6567930;27;34895;-82
2023/05/15 06:02:08;;;;;;;18.33;10.32;;;;;;;13.00;100.00;99681.63;6568375;27;34636;-82
2023/05/15 06:05:12;;;;;;;16.00;10.23;;;;;;;13.04;100.00;99690.16;6584964;27;33483;-82
2023/05/15 06:08:15;;;;;;;16.37;10.07;;;;;;;13.34;100.00;99690.53;6605456;27;33998;-82
2023/05/15 06:11:17;;;;;;;13.62;9.00;;;;;;;13.56;100.00;99672.97;6585737;27;33557;-82
2023/05/15 06:14:20;;;;;;;13.60;9.23;;;;;;;13.80;100.00;99678.69;6568831;27;33965;-82
2023/05/15 06:17:23;;;;;;;13.38;8.73;;;;;;;14.02;100.00;99684.59;6585965;27;33695;-82
2023/05/15 06:20:26;;;;;;;14.13;9.55;;;;;;;14.16;100.00;99693.50;6567815;27;33517;-82
2023/05/15 06:23:29;;;;;;;14.65;8.82;;;;;;;14.33;100.00;99688.34;6568126;27;34974;-82
2023/05/15 06:26:32;;;;;;;13.88;8.85;;;;;;;14.37;100.00;99706.66;6585788;27;33827;-82
2023/05/15 06:29:35;;;;;;;13.48;9.15;;;;;;;14.31;100.00;99704.00;6586561;27;33762;-82
2023/05/15 06:32:37;;;;;;;15.93;9.05;;;;;;;14.24;100.00;99710.31;6586424;27;33866;-82
2023/05/15 06:35:41;;;;;;;14.30;9.95;;;;;;;14.35;100.00;99708.75;6586435;27;34844;-82
2023/05/15 06:38:44;;;;;;;10.90;7.90;;;;;;;14.35;100.00;99700.62;6586093;27;33827;-82
2023/05/15 06:41:46;;;;;;;12.98;8.45;;;;;;;14.46;100.00;99702.63;6567735;27;33683;-82
2023/05/15 06:44:49;;;;;;;10.57;7.85;;;;;;;14.39;100.00;99701.88;6585416;27;33771;-82
2023/05/15 06:47:52;;;;;;;12.37;8.43;;;;;;;14.46;100.00;99690.97;6567735;27;34000;-82
2023/05/15 06:50:55;;;;;;;13.50;10.00;;;;;;;14.48;100.00;99678.88;6567875;27;33865;-82
2023/05/15 06:53:58;;;;;;;11.88;8.52;;;;;;;14.43;100.00;99675.16;6585763;27;33438;-82
2023/05/15 06:57:00;;;;;;;11.98;8.27;;;;;;;14.69;100.00;99671.44;6585748;27;34355;-82
2023/05/15 07:00:04;;;;;;;11.48;7.55;;;;;;;14.98;100.00;99659.06;6585769;27;33839;-82
2023/05/15 07:03:07;;;;;;;10.15;7.37;;;;;;;15.17;100.00;99662.62;6605084;27;34108;-82
2023/05/15 07:06:10;;;;;;;10.30;7.50;;;;;;;15.50;100.00;99658.69;6567006;27;33652;-82
2023/05/15 07:09:13;;;;;;;10.20;7.43;;;;;;;15.71;100.00;99671.00;6585355;27;33564;-82
2023/05/15 07:12:16;;;;;;;8.75;6.82;;;;;;;15.91;100.00;99685.09;6605128;27;35033;-82
2023/05/15 07:15:18;;;;;;;8.60;6.80;;;;;;;16.07;100.00;99686.34;6567487;27;34602;-82
2023/05/15 07:18:21;;;;;;;12.70;7.07;;;;;;;16.15;100.00;99680.59;6567777;27;33571;-82
2023/05/15 07:21:24;;;;;;;8.77;7.10;;;;;;;16.06;100.00;99688.25;6598040;27;33630;-82
2023/05/15 07:24:27;;;;;;;10.80;7.60;;;;;;;16.32;100.00;99683.47;6580856;27;35410;-83
2023/05/15 07:27:30;;;;;;;9.63;7.22;;;;;;;16.25;100.00;99699.06;6567633;27;34085;-82
2023/05/15 07:30:33;;;;;;;10.80;7.97;;;;;;;15.83;100.00;99707.16;6567846;27;33975;-82
2023/05/15 07:33:36;;;;;;;8.48;7.20;;;;;;;15.53;100.00;99713.34;6583075;27;34717;-83
2023/05/15 07:36:39;;;;;;;8.75;7.55;;;;;;;15.24;100.00;99724.91;6622120;27;36382;-83
2023/05/15 07:39:42;;;;;;;8.93;7.22;;;;;;;15.18;100.00;99716.63;6605465;27;33559;-82
2023/05/15 07:42:45;;;;;;;10.10;7.68;;;;;;;15.14;100.00;99701.84;6605369;27;34064;-83
2023/05/15 07:45:48;;;;;;;10.18;7.30;;;;;;;15.12;100.00;99692.28;6585831;27;33792;-83
2023/05/15 07:48:51;;;;;;;9.75;7.20;;;;;;;15.16;100.00;99677.25;6605456;27;33410;-84
2023/05/15 07:51:54;;;;;;;9.48;6.97;;;;;;;15.13;100.00;99680.41;6585676;27;34560;-82
2023/05/15 07:54:57;;;;;;;10.13;7.60;;;;;;;15.39;100.00;99679.28;6567853;27;33928;-83
2023/05/15 07:58:00;;;;;;;10.18;7.60;;;;;;;15.59;100.00;99682.59;6567569;27;34038;-82
2023/05/15 08:01:03;;;;;;;10.43;7.90;;;;;;;15.89;100.00;99672.84;6567385;27;34714;-82
2023/05/15 08:04:07;;;;;;;8.75;6.70;;;;;;;16.14;100.00;99680.81;6549879;27;33918;-83
2023/05/15 08:07:11;;;;;;;9.27;7.57;;;;;;;16.28;100.00;99696.69;6567722;27;34198;-86
2023/05/15 08:10:14;;;;;;;8.73;6.90;;;;;;;16.33;100.00;99709.59;6605340;27;33967;-86
2023/05/15 08:13:17;;;;;;;11.02;8.05;;;;;;;16.47;100.00;99710.22;6567757;27;33584;-87
2023/05/15 08:16:20;;;;;;;11.43;7.75;;;;;;;16.74;100.00;99699.75;6605200;27;34109;-87
2023/05/15 08:19:23;;;;;;;9.63;7.50;;;;;;;17.19;100.00;99708.16;6586264;27;33943;-82
2023/05/15 08:22:26;;;;;;;9.20;7.40;;;;;;;17.61;100.00;99712.63;6567344;27;33891;-83
2023/05/15 08:25:29;;;;;;;8.00;7.20;;;;;;;17.49;100.00;99711.78;6567106;27;34714;-82
2023/05/15 08:28:32;;;;;;;9.65;7.47;;;;;;;17.09;100.00;99707.94;6586128;27;34695;-83
2023/05/15 08:31:35;;;;;;;9.35;7.90;;;;;;;17.05;100.00;99719.53;6612244;27;34138;-82
2023/05/15 08:34:38;;;;;;;8.55;7.15;;;;;;;17.17;100.00;99723.06;6620494;27;34240;-83
2023/05/15 08:37:40;;;;;;;9.68;7.50;;;;;;;17.19;100.00;99719.03;6586465;27;34003;-83
2023/05/15 08:40:46;;;;;;;9.75;7.50;;;;;;;17.31;100.00;99713.59;6567800;27;33929;-83
2023/05/15 08:43:51;;;;;;;8.68;7.50;;;;;;;17.19;100.00;99710.06;6590245;27;33922;-82
2023/05/15 08:46:56;;;;;;;9.32;7.10;;;;;;;17.39;100.00;99712.41;6604939;27;33842;-82
2023/05/15 08:50:04;;;;;;;9.90;7.40;;;;;;;17.59;100.00;99701.13;6604884;27;33889;-82
2023/05/15 08:53:09;;;;;;;11.02;7.45;;;;;;;17.97;100.00;99705.19;6604261;27;34386;-83
2023/05/15 08:56:12;;;;;;;8.48;7.22;;;;;;;18.68;100.00;99692.81;6584730;27;33775;-83
2023/05/15 08:59:15;;;;;;;8.57;5.93;;;;;;;18.91;100.00;99701.94;6566435;27;33860;-83
2023/05/15 09:02:19;;;;;;;8.57;6.03;;;;;;;18.76;100.00;99697.09;6584822;27;34280;-83
2023/05/15 09:05:22;;;;;;;7.50;5.12;;;;;;;19.03;100.00;99692.59;6604622;27;34075;-84
2023/05/15 09:08:29;;;;;;;5.22;4.72;;;;;;;18.95;100.00;99684.84;6604688;26;34627;-83
2023/05/15 09:11:32;;;;;;;7.03;4.75;;;;;;;18.97;100.00;99690.03;6604874;27;34630;-83
2023/05/15 09:14:35;;;;;;;4.90;4.40;;;;;;;19.39;100.00;99703.19;6604263;27;33602;-85
2023/05/15 09:17:39;;;;;;;4.18;3.78;;;;;;;20.14;100.00;99707.94;6566213;27;33967;-83
2023/05/15 09:20:41;;;;;;;4.62;4.03;;;;;;;19.84;100.00;99708.44;6567383;27;33837;-83
2023/05/15 09:23:44;;;;;;;3.30;3.00;;;;;;;19.10;100.00;99716.12;6585138;27;33878;-83
2023/05/15 09:27:00;;;;;;;3.25;3.00;;;;;;;18.69;100.00;99727.22;6585386;27;34704;-83
2023/05/15 09:30:10;;;;;;;3.33;2.58;;;;;;;18.85;100.00;99730.22;6605465;27;34031;-83
2023/05/15 09:33:15;;;;;;;2.90;2.70;;;;;;;18.90;100.00;99727.59;6605748;27;35115;-83
2023/05/15 09:36:21;;;;;;;2.60;2.40;;;;;;;19.24;100.00;99740.09;6605695;27;33753;-83
2023/05/15 09:39:24;;;;;;;3.87;2.72;;;;;;;19.20;100.00;99746.31;6604175;27;34041;-83
2023/05/15 09:42:33;;;;;;;2.95;2.60;;;;;;;19.42;100.00;99749.06;6596960;26;33604;-82
2023/05/15 09:45:36;;;;;;;2.28;2.08;;;;;;;19.86;99.73;99741.78;6626622;26;34230;-82
2023/05/15 09:48:39;;;;;;;2.40;2.20;;;;;;;19.58;98.66;99742.75;6567365;27;33841;-82
2023/05/15 09:51:47;;;;;;;2.45;2.25;;;;;;;20.00;98.80;99742.22;6567752;27;33389;-82
2023/05/15 09:54:51;;;;;;;2.40;2.20;;;;;;;20.03;97.19;99743.63;6606452;27;34044;-86
2023/05/15 09:58:06;;;;;;;3.62;2.80;;;;;;;19.60;96.49;99742.53;6586032;27;33938;-86
2023/05/15 10:01:10;;;;;;;3.22;2.80;;;;;;;19.23;100.00;99746.62;6594613;27;34075;-82
2023/05/15 10:04:14;;;;;;;2.58;2.37;;;;;;;19.26;100.00;99748.87;6561837;27;34383;-82
2023/05/15 10:07:30;;;;;;;2.70;2.50;;;;;;;19.46;98.18;99748.34;6609830;27;33701;-83
2023/05/15 10:10:33;;;;;;;2.80;2.60;;;;;;;19.62;100.00;99741.16;6608964;27;34548;-82
2023/05/15 10:13:36;;;;;;;2.78;2.53;;;;;;;19.61;99.30;99742.25;6567714;27;33927;-82
2023/05/15 10:16:40;;;;;;;2.67;2.47;;;;;;;19.90;98.59;99740.19;6585827;27;33750;-82
2023/05/15 10:19:44;;;;;;;2.60;2.40;;;;;;;20.33;94.33;99745.88;6586077;27;33621;-82
2023/05/15 10:23:04;;;;;;;2.65;2.05;;;;;;;20.88;95.69;99746.66;6605908;27;33594;-82
2023/05/15 10:26:20;;;;;;;4.03;2.47;;;;;;;20.63;89.86;99741.81;6605598;27;33843;-82
2023/05/15 10:29:25;;;;;;;2.20;2.00;;;;;;;20.91;89.04;99738.75;6605803;27;34484;-82
2023/05/15 10:32:28;;;;;;;2.22;1.90;;;;;;;21.04;88.23;99749.25;6605968;27;35010;-82
2023/05/15 10:35:33;;;;;;;1.77;1.67;;;;;;;20.89;88.39;99734.66;6586340;27;34728;-82
2023/05/15 10:38:37;;;;;;;1.70;1.60;;;;;;;20.57;89.88;99736.28;6608038;27;34631;-82
2023/05/15 10:41:41;;;;;;;1.35;1.25;;;;;;;21.05;90.64;99736.41;6556868;27;33909;-81
2023/05/15 10:44:44;;;;;;;1.70;1.40;;;;;;;21.38;82.77;99735.31;6586464;27;35527;-82
2023/05/15 10:47:47;;;;;;;1.33;1.23;;;;;;;21.47;81.79;99744.66;6577582;27;34003;-82
2023/05/15 10:50:50;;;;;;;3.33;1.45;;;;;;;21.32;78.64;99747.25;6619834;27;33938;-82
2023/05/15 10:53:55;;;;;;;0.88;0.88;;;;;;;21.67;84.53;99743.09;6585692;27;34569;-81
2023/05/15 10:56:58;;;;;;;1.37;1.10;;;;;;;21.69;76.96;99747.22;6585678;27;34552;-82
2023/05/15 11:00:01;;;;;;;0.88;0.88;;;;;;;21.78;77.87;99749.47;6604772;27;34562;-81
2023/05/15 11:03:04;;;;;;;0.90;0.90;;;;;;;22.11;74.79;99742.72;6605195;27;34016;-82
2023/05/15 11:06:12;;;;;;;1.00;1.00;;;;;;;22.44;70.90;99738.75;6586333;27;34735;-81
2023/05/15 11:09:21;;;;;;;0.77;0.77;;;;;;;22.70;73.75;99739.59;6608825;26;33827;-82
2023/05/15 11:12:24;;;;;;;1.10;1.08;;;;;;;22.68;71.49;99738.22;6604408;27;34235;-82
2023/05/15 11:15:40;;;;;;;1.10;1.10;;;;;;;22.81;71.74;99743.97;6611240;27;34191;-81
2023/05/15 11:18:44;;;;;;;1.20;1.10;;;;;;;22.75;72.26;99746.97;6604687;27;34088;-82
2023/05/15 11:21:47;;;;;;;1.30;1.20;;;;;;;23.04;73.32;99741.78;6566978;27;33864;-82
2023/05/15 11:24:54;;;;;;;1.27;1.17;;;;;;;22.63;76.03;99737.09;6568077;27;33818;-82
2023/05/15 11:27:57;;;;;;;1.25;1.15;;;;;;;23.75;69.78;99722.44;6584887;27;34393;-82
2023/05/15 11:31:05;;;;;;;2.72;1.23;;;;;;;24.38;66.96;99716.31;6585367;27;33502;-82
2023/05/15 11:34:08;;;;;;;0.93;0.80;;;;;;;23.12;71.52;99718.47;6605181;27;33530;-82
2023/05/15 11:37:18;;;;;;;1.37;1.27;;;;;;;22.64;71.26;99725.03;6585488;27;34104;-82
2023/05/15 11:40:48;;;;;;;1.40;1.30;;;;;;;21.89;77.51;99730.06;6585581;27;33973;-82
2023/05/15 11:43:51;;;;;;;1.90;1.50;;;;;;;22.20;79.54;99713.75;6603528;27;35112;-82
2023/05/15 11:46:54;;;;;;;2.53;1.40;;;;;;;21.76;79.69;99708.62;6605679;27;33476;-82
2023/05/15 11:49:58;;;;;;;2.90;1.50;;;;;;;21.62;83.59;99722.00;6567090;27;34630;-82
2023/05/15 11:53:03;;;;;;;1.30;1.20;;;;;;;21.27;80.38;99719.87;6605245;27;33518;-82
2023/05/15 11:56:06;;;;;;;2.35;1.40;;;;;;;20.96;82.50;99711.44;6585550;27;34727;-81
2023/05/15 11:59:12;;;;;;;3.87;1.85;;;;;;;20.47;85.41;99705.25;6585478;27;34052;-81
2023/05/15 12:02:15;;;;;;;1.62;1.50;;;;;;;20.22;88.69;99708.59;6605860;27;33916;-81
2023/05/15 12:05:18;;;;;;;1.48;1.40;;;;;;;20.11;94.45;99719.37;6585668;27;34463;-81
2023/05/15 12:08:21;;;;;;;3.08;1.55;;;;;;;19.59;90.39;99721.75;6617166;27;34946;-81
2023/05/15 12:11:25;;;;;;;1.90;1.70;;;;;;;19.35;94.67;99727.44;6591849;26;34410;-81
2023/05/15 12:14:29;;;;;;;1.73;1.62;;;;;;;19.10;95.50;99717.00;6567638;27;34295;-81
2023/05/15 12:17:32;;;;;;;2.10;1.60;;;;;;;19.32;98.00;99721.66;6585591;27;33830;-82
2023/05/15 12:20:36;;;;;;;3.60;1.70;;;;;;;19.48;93.00;99734.44;6585098;27;34581;-81
2023/05/15 12:23:39;;;;;;;5.93;1.77;;;;;;;19.65;91.32;99723.47;6585255;27;33649;-81
2023/05/15 12:26:41;;;;;;;2.92;1.52;;;;;;;19.73;92.18;99725.78;6567279;27;33694;-81
2023/05/15 12:29:44;;;;;;;1.40;1.30;;;;;;;19.72;93.20;99724.13;6584708;27;35095;-82
2023/05/15 12:32:48;;;;;;;2.72;1.70;;;;;;;19.68;92.49;99726.53;6595295;27;33831;-82
2023/05/15 12:35:55;;;;;;;2.05;1.73;;;;;;;19.84;92.15;99721.28;6605430;27;33863;-82
2023/05/15 12:39:06;;;;;;;1.92;1.80;;;;;;;19.97;95.75;99734.53;6606112;27;34125;-82
2023/05/15 12:42:10;;;;;;;1.95;1.55;;;;;;;19.74;97.17;99732.06;6591520;27;34359;-82
2023/05/15 12:45:17;;;;;;;2.95;1.90;;;;;;;19.25;96.41;99732.75;6585437;27;33814;-86
2023/05/15 12:48:20;;;;;;;3.75;1.83;;;;;;;19.16;98.16;99743.28;6604261;27;33649;-86
2023/05/15 12:51:23;;;;;;;2.72;2.05;;;;;;;18.82;98.74;99730.72;6584726;27;33880;-83
2023/05/15 12:54:26;;;;;;;2.45;1.90;;;;;;;18.77;100.00;99735.00;6604806;27;33882;-82
2023/05/15 12:57:29;;;;;;;2.97;1.77;;;;;;;19.01;100.00;99734.81;6567266;27;34921;-82
2023/05/15 13:00:37;;;;;;;2.70;1.60;;;;;;;19.07;100.00;99722.94;6585098;27;34381;-82
2023/05/15 13:03:41;;;;;;;2.17;1.80;;;;;;;19.37;98.34;99716.28;6585594;27;34921;-82
2023/05/15 13:06:45;;;;;;;1.92;1.75;;;;;;;19.72;95.16;99712.37;6588761;27;34526;-82
2023/05/15 13:10:03;;;;;;;2.17;1.73;;;;;;;20.37;93.28;99712.28;6587177;27;34063;-82
2023/05/15 13:13:06;;;;;;;1.62;1.52;;;;;;;20.85;91.53;99706.97;6608599;26;34538;-83
2023/05/15 13:16:20;;;;;;;1.62;1.52;;;;;;;20.94;88.94;99705.41;6567672;27;34800;-84
2023/05/15 13:19:23;;;;;;;1.52;1.42;;;;;;;20.53;88.29;99706.97;6605635;27;34815;-84
2023/05/15 13:22:26;;;;;;;3.05;1.50;;;;;;;20.25;91.11;99708.06;6586450;27;34908;-84
2023/05/15 13:25:30;;;;;;;1.58;1.48;;;;;;;19.87;92.30;99702.47;6606587;27;33906;-84
2023/05/15 13:28:34;;;;;;;1.85;1.75;;;;;;;19.65;93.84;99705.19;6586884;27;33490;-84
2023/05/15 13:31:37;;;;;;;1.40;1.27;;;;;;;19.50;96.51;99704.97;6586779;27;34059;-84
2023/05/15 13:34:39;;;;;;;1.17;1.17;;;;;;;19.19;97.00;99704.56;6610961;27;33888;-83
2023/05/15 13:37:43;;;;;;;1.40;1.30;;;;;;;18.98;95.57;99695.25;6607042;27;33281;-83
2023/05/15 13:40:45;;;;;;;1.77;1.40;;;;;;;18.98;95.12;99698.00;6554013;27;34898;-84
2023/05/15 13:43:50;;;;;;;1.42;1.00;;;;;;;18.99;94.74;99705.09;6594927;27;34569;-83
2023/05/15 13:46:53;;;;;;;1.27;1.17;;;;;;;18.76;95.29;99702.53;6611719;27;34029;-83
2023/05/15 13:49:56;;;;;;;1.40;1.17;;;;;;;18.85;95.81;99705.69;6550363;27;34000;-83
2023/05/15 13:52:59;;;;;;;1.17;1.05;;;;;;;18.93;93.26;99703.34;6586443;27;34187;-83
2023/05/15 13:56:02;;;;;;;1.17;1.17;;;;;;;18.83;94.80;99699.62;6584423;27;33859;-83
2023/05/15 13:59:05;;;;;;;0.77;0.77;;;;;;;18.78;96.06;99687.59;6598199;27;34370;-83
2023/05/15 14:02:08;;;;;;;1.12;1.10;;;;;;;18.93;96.60;99687.00;6566879;27;34452;-83
2023/05/15 14:05:14;;;;;;;0.98;0.98;;;;;;;18.82;94.96;99700.72;6603610;27;34895;-83
2023/05/15 14:08:16;;;;;;;1.60;1.12;;;;;;;18.67;96.90;99704.81;6605933;27;34655;-83
2023/05/15 14:11:21;;;;;;;3.28;1.50;;;;;;;18.39;96.36;99699.41;6584758;27;35000;-83
2023/05/15 14:14:27;;;;;;;1.70;1.55;;;;;;;18.39;95.86;99702.16;6605745;26;33532;-83
2023/05/15 14:17:30;;;;;;;1.48;1.10;;;;;;;18.31;100.00;99704.22;6568021;27;34003;-83
2023/05/15 14:20:33;;;;;;;1.45;1.35;;;;;;;18.32;98.78;99707.75;6586161;27;34025;-83
2023/05/15 14:23:36;;;;;;;1.85;1.40;;;;;;;18.18;97.89;99704.50;6586705;27;33506;-83
2023/05/15 14:26:38;;;;;;;2.05;1.35;;;;;;;18.19;99.63;99705.31;6568252;27;34555;-83
2023/05/15 14:29:43;;;;;;;2.95;1.48;;;;;;;18.06;98.00;99701.84;6570133;27;34418;-81
2023/05/15 14:32:46;;;;;;;1.83;1.30;;;;;;;18.01;100.00;99703.63;6608815;26;34759;-83
2023/05/15 14:35:49;;;;;;;2.40;1.10;;;;;;;18.01;98.93;99707.19;6573708;27;34875;-87
2023/05/15 14:38:51;;;;;;;1.12;0.95;;;;;;;18.02;98.48;99717.03;6592778;27;34219;-87
2023/05/15 14:41:54;;;;;;;1.33;1.23;;;;;;;17.98;100.00;99709.56;6587240;27;35365;-87
2023/05/15 14:44:57;;;;;;;3.58;1.30;;;;;;;17.93;100.00;99717.63;6561700;27;156171;-88
2023/05/15 14:48:00;;;;;;;1.20;1.10;;;;;;;17.88;98.52;99715.66;6604550;27;34599;-83
2023/05/15 14:51:03;;;;;;;2.47;1.30;;;;;;;17.75;100.00;99715.88;6585754;27;34562;-83
2023/05/15 14:54:07;;;;;;;2.33;1.20;;;;;;;17.73;100.00;99724.31;6568335;27;33852;-83
2023/05/15 14:57:09;;;;;;;3.80;2.17;;;;;;;17.71;100.00;99728.34;6585501;27;33660;-83
2023/05/15 15:00:13;;;;;;;1.37;1.27;;;;;;;17.58;100.00;99734.84;6585643;27;33777;-83
2023/05/15 15:03:17;;;;;;;1.20;1.10;;;;;;;17.51;100.00;99723.28;6567599;27;33915;-83
2023/05/15 15:06:20;;;;;;;2.30;1.90;;;;;;;17.44;100.00;99728.84;6606562;27;33855;-83
2023/05/15 15:09:24;;;;;;;1.75;1.40;;;;;;;17.44;100.00;99732.41;6567841;27;34847;-83
2023/05/15 15:12:30;;;;;;;4.35;1.87;;;;;;;17.53;100.00;99735.59;6569584;27;34217;-83
2023/05/15 15:15:33;;;;;;;1.98;1.12;;;;;;;17.44;100.00;99740.56;6585585;26;33909;-83
2023/05/15 15:18:36;;;;;;;1.50;1.40;;;;;;;17.43;100.00;99741.66;6586046;27;33869;-83
2023/05/15 15:21:39;;;;;;;1.30;1.20;;;;;;;17.48;100.00;99738.19;6605342;27;34910;-83
2023/05/15 15:24:42;;;;;;;2.90;1.40;;;;;;;17.27;100.00;99750.50;6585907;27;33775;-83
2023/05/15 15:27:45;;;;;;;2.45;1.40;;;;;;;17.40;100.00;99758.44;6585908;27;34659;-84
2023/05/15 15:30:48;;;;;;;1.33;1.10;;;;;;;17.53;100.00;99759.25;6605516;27;33493;-84
2023/05/15 15:33:51;;;;;;;2.62;1.55;;;;;;;17.72;97.26;99754.47;6586162;27;33483;-84
2023/05/15 15:36:53;;;;;;;1.50;1.40;;;;;;;17.83;98.03;99757.19;6567594;27;33983;-82
2023/05/15 15:39:57;;;;;;;1.85;1.48;;;;;;;17.89;97.66;99758.13;6586352;27;34028;-82
2023/05/15 15:43:00;;;;;;;1.87;1.77;;;;;;;17.93;96.19;99758.47;6568075;27;33824;-82
2023/05/15 15:46:03;;;;;;;1.55;1.45;;;;;;;18.05;97.37;99762.00;6586198;27;33850;-82
2023/05/15 15:49:06;;;;;;;3.05;1.65;;;;;;;18.11;97.31;99758.31;6568055;27;34047;-82
2023/05/15 15:52:09;;;;;;;1.90;1.60;;;;;;;18.25;95.95;99756.13;6568273;27;33870;-82
2023/05/15 15:55:12;;;;;;;1.60;1.50;;;;;;;18.38;97.27;99768.62;6609985;27;33821;-82
2023/05/15 15:58:14;;;;;;;1.40;1.30;;;;;;;18.44;94.23;99773.09;6589934;27;34096;-83
